sensor_id;sensor_type;location;lat;lon;timestamp;P1;durP1;ratioP1;P2;durP2;ratioP2
13611;SDS011;6877;51.436;6.774;2024-03-25T00:01:01;16.48;;;7.53;;
13611;SDS011;6877;51.436;6.774;2024-03-25T00:03:32;26.05;;;11.82;;
13611;SDS011;6877;51.436;6.774;2024-03-25T00:05:59;42.03;;;16.58;;
13611;SDS011;6877;51.436;6.774;2024-03-25T00:08:25;46.58;;;17.40;;
13611;SDS011;6877;51.436;6.774;2024-03-25T00:10:51;46.05;;;20.95;;
13611;SDS011;6877;51.436;6.774;2024-03-25T00:13:17;40.00;;;19.45;;
13611;SDS011;6877;51.436;6.774;2024-03-25T00:15:46;48.58;;;20.38;;
13611;SDS011;6877;51.436;6.774;2024-03-25T00:18:12;41.58;;;18.77;;
13611;SDS011;6877;51.436;6.774;2024-03-25T00:20:37;49.33;;;19.58;;
13611;SDS011;6877;51.436;6.774;2024-03-25T00:23:03;53.85;;;19.30;;
13611;SDS011;6877;51.436;6.774;2024-03-25T00:25:29;42.05;;;18.73;;
13611;SDS011;6877;51.436;6.774;2024-03-25T00:27:54;41.70;;;16.00;;
13611;SDS011;6877;51.436;6.774;2024-03-25T00:30:22;39.45;;;16.80;;
13611;SDS011;6877;51.436;6.774;2024-03-25T00:32:48;41.63;;;15.02;;
13611;SDS011;6877;51.436;6.774;2024-03-25T00:35:15;35.03;;;12.15;;
13611;SDS011;6877;51.436;6.774;2024-03-25T00:37:43;41.42;;;12.32;;
13611;SDS011;6877;51.436;6.774;2024-03-25T00:40:10;26.65;;;8.93;;
13611;SDS011;6877;51.436;6.774;2024-03-25T00:42:37;29.15;;;9.07;;
13611;SDS011;6877;51.436;6.774;2024-03-25T00:45:03;21.35;;;6.75;;
13611;SDS011;6877;51.436;6.774;2024-03-25T00:47:31;22.90;;;6.93;;
13611;SDS011;6877;51.436;6.774;2024-03-25T00:49:57;29.00;;;6.13;;
13611;SDS011;6877;51.436;6.774;2024-03-25T00:52:23;23.55;;;5.68;;
13611;SDS011;6877;51.436;6.774;2024-03-25T00:54:49;20.33;;;5.38;;
13611;SDS011;6877;51.436;6.774;2024-03-25T00:57:14;24.05;;;5.43;;
13611;SDS011;6877;51.436;6.774;2024-03-25T00:59:41;25.05;;;8.32;;
13611;SDS011;6877;51.436;6.774;2024-03-25T01:02:06;20.40;;;5.00;;
13611;SDS011;6877;51.436;6.774;2024-03-25T01:04:33;16.40;;;4.15;;
13611;SDS011;6877;51.436;6.774;2024-03-25T01:06:59;13.30;;;5.10;;
13611;SDS011;6877;51.436;6.774;2024-03-25T01:09:25;32.83;;;5.40;;
13611;SDS011;6877;51.436;6.774;2024-03-25T01:11:51;12.77;;;4.30;;
13611;SDS011;6877;51.436;6.774;2024-03-25T01:14:16;20.77;;;5.40;;
13611;SDS011;6877;51.436;6.774;2024-03-25T01:16:42;21.75;;;5.72;;
13611;SDS011;6877;51.436;6.774;2024-03-25T01:19:08;20.02;;;5.78;;
13611;SDS011;6877;51.436;6.774;2024-03-25T01:21:35;31.20;;;8.55;;
13611;SDS011;6877;51.436;6.774;2024-03-25T01:24:01;18.65;;;4.97;;
13611;SDS011;6877;51.436;6.774;2024-03-25T01:26:27;18.40;;;6.20;;
13611;SDS011;6877;51.436;6.774;2024-03-25T01:28:54;10.02;;;3.58;;
13611;SDS011;6877;51.436;6.774;2024-03-25T01:31:20;16.73;;;4.50;;
13611;SDS011;6877;51.436;6.774;2024-03-25T01:33:45;18.00;;;4.88;;
13611;SDS011;6877;51.436;6.774;2024-03-25T01:36:12;17.15;;;5.00;;
13611;SDS011;6877;51.436;6.774;2024-03-25T01:38:43;15.13;;;4.28;;
13611;SDS011;6877;51.436;6.774;2024-03-25T01:41:12;14.32;;;5.63;;
13611;SDS011;6877;51.436;6.774;2024-03-25T01:43:42;16.90;;;5.18;;
13611;SDS011;6877;51.436;6.774;2024-03-25T01:46:08;20.52;;;4.68;;
13611;SDS011;6877;51.436;6.774;2024-03-25T01:48:35;20.60;;;5.63;;
13611;SDS011;6877;51.436;6.774;2024-03-25T01:51:01;17.40;;;6.63;;
13611;SDS011;6877;51.436;6.774;2024-03-25T01:53:28;14.25;;;5.00;;
13611;SDS011;6877;51.436;6.774;2024-03-25T01:55:55;10.98;;;4.63;;
13611;SDS011;6877;51.436;6.774;2024-03-25T01:58:22;26.52;;;6.22;;
13611;SDS011;6877;51.436;6.774;2024-03-25T02:00:51;13.80;;;4.60;;
13611;SDS011;6877;51.436;6.774;2024-03-25T02:03:20;10.57;;;4.90;;
13611;SDS011;6877;51.436;6.774;2024-03-25T02:05:47;19.30;;;5.32;;
13611;SDS011;6877;51.436;6.774;2024-03-25T02:08:18;16.92;;;5.65;;
13611;SDS011;6877;51.436;6.774;2024-03-25T02:10:45;32.58;;;5.97;;
13611;SDS011;6877;51.436;6.774;2024-03-25T02:13:12;16.15;;;4.78;;
13611;SDS011;6877;51.436;6.774;2024-03-25T02:15:38;19.17;;;6.20;;
13611;SDS011;6877;51.436;6.774;2024-03-25T02:18:04;21.15;;;5.30;;
13611;SDS011;6877;51.436;6.774;2024-03-25T02:20:30;19.20;;;5.20;;
13611;SDS011;6877;51.436;6.774;2024-03-25T02:22:56;26.40;;;6.10;;
13611;SDS011;6877;51.436;6.774;2024-03-25T02:25:22;21.55;;;5.68;;
13611;SDS011;6877;51.436;6.774;2024-03-25T02:27:49;19.05;;;5.63;;
13611;SDS011;6877;51.436;6.774;2024-03-25T02:30:14;18.80;;;5.20;;
13611;SDS011;6877;51.436;6.774;2024-03-25T02:32:41;19.73;;;4.95;;
13611;SDS011;6877;51.436;6.774;2024-03-25T02:35:09;13.35;;;5.03;;
13611;SDS011;6877;51.436;6.774;2024-03-25T02:37:37;15.30;;;5.22;;
13611;SDS011;6877;51.436;6.774;2024-03-25T02:40:05;15.40;;;5.60;;
13611;SDS011;6877;51.436;6.774;2024-03-25T02:42:32;20.45;;;5.22;;
13611;SDS011;6877;51.436;6.774;2024-03-25T02:44:59;15.55;;;5.50;;
13611;SDS011;6877;51.436;6.774;2024-03-25T02:47:25;22.23;;;5.60;;
13611;SDS011;6877;51.436;6.774;2024-03-25T02:49:52;18.58;;;6.15;;
13611;SDS011;6877;51.436;6.774;2024-03-25T02:52:19;14.70;;;5.85;;
13611;SDS011;6877;51.436;6.774;2024-03-25T02:54:45;17.70;;;6.22;;
13611;SDS011;6877;51.436;6.774;2024-03-25T02:57:11;19.40;;;5.45;;
13611;SDS011;6877;51.436;6.774;2024-03-25T02:59:37;16.42;;;6.35;;
13611;SDS011;6877;51.436;6.774;2024-03-25T03:02:03;18.40;;;5.70;;
13611;SDS011;6877;51.436;6.774;2024-03-25T03:04:29;16.00;;;5.40;;
13611;SDS011;6877;51.436;6.774;2024-03-25T03:06:55;28.52;;;7.13;;
13611;SDS011;6877;51.436;6.774;2024-03-25T03:09:22;16.02;;;7.18;;
13611;SDS011;6877;51.436;6.774;2024-03-25T03:11:48;19.42;;;6.65;;
13611;SDS011;6877;51.436;6.774;2024-03-25T03:14:14;33.28;;;7.22;;
13611;SDS011;6877;51.436;6.774;2024-03-25T03:16:40;22.30;;;6.82;;
13611;SDS011;6877;51.436;6.774;2024-03-25T03:19:06;22.20;;;8.77;;
13611;SDS011;6877;51.436;6.774;2024-03-25T03:21:32;28.20;;;8.98;;
13611;SDS011;6877;51.436;6.774;2024-03-25T03:23:57;40.83;;;8.23;;
13611;SDS011;6877;51.436;6.774;2024-03-25T03:26:23;26.27;;;8.70;;
13611;SDS011;6877;51.436;6.774;2024-03-25T03:28:58;26.85;;;7.78;;
13611;SDS011;6877;51.436;6.774;2024-03-25T03:31:25;23.20;;;8.10;;
13611;SDS011;6877;51.436;6.774;2024-03-25T03:33:51;22.10;;;8.25;;
13611;SDS011;6877;51.436;6.774;2024-03-25T03:36:18;26.70;;;7.13;;
13611;SDS011;6877;51.436;6.774;2024-03-25T03:38:45;31.25;;;7.88;;
13611;SDS011;6877;51.436;6.774;2024-03-25T03:41:12;23.80;;;8.43;;
13611;SDS011;6877;51.436;6.774;2024-03-25T03:43:38;25.02;;;8.27;;
13611;SDS011;6877;51.436;6.774;2024-03-25T03:46:03;29.38;;;9.73;;
13611;SDS011;6877;51.436;6.774;2024-03-25T03:48:30;60.13;;;12.63;;
13611;SDS011;6877;51.436;6.774;2024-03-25T03:50:56;37.10;;;10.85;;
13611;SDS011;6877;51.436;6.774;2024-03-25T03:53:21;45.47;;;11.57;;
13611;SDS011;6877;51.436;6.774;2024-03-25T03:55:54;42.60;;;12.20;;
13611;SDS011;6877;51.436;6.774;2024-03-25T03:58:23;40.50;;;10.55;;
13611;SDS011;6877;51.436;6.774;2024-03-25T04:00:50;28.48;;;10.13;;
13611;SDS011;6877;51.436;6.774;2024-03-25T04:03:17;49.10;;;14.65;;
13611;SDS011;6877;51.436;6.774;2024-03-25T04:05:43;48.40;;;15.82;;
13611;SDS011;6877;51.436;6.774;2024-03-25T04:08:10;44.90;;;13.45;;
13611;SDS011;6877;51.436;6.774;2024-03-25T04:10:36;55.80;;;14.20;;
13611;SDS011;6877;51.436;6.774;2024-03-25T04:13:03;47.20;;;15.80;;
13611;SDS011;6877;51.436;6.774;2024-03-25T04:15:33;77.75;;;19.80;;
13611;SDS011;6877;51.436;6.774;2024-03-25T04:18:03;53.17;;;18.63;;
13611;SDS011;6877;51.436;6.774;2024-03-25T04:20:35;66.30;;;18.95;;
13611;SDS011;6877;51.436;6.774;2024-03-25T04:23:02;66.63;;;18.08;;
13611;SDS011;6877;51.436;6.774;2024-03-25T04:25:28;40.72;;;14.65;;
13611;SDS011;6877;51.436;6.774;2024-03-25T04:27:54;54.55;;;16.83;;
13611;SDS011;6877;51.436;6.774;2024-03-25T04:30:20;48.63;;;12.88;;
13611;SDS011;6877;51.436;6.774;2024-03-25T04:32:47;41.83;;;14.10;;
13611;SDS011;6877;51.436;6.774;2024-03-25T04:35:12;40.20;;;12.95;;
13611;SDS011;6877;51.436;6.774;2024-03-25T04:37:38;39.33;;;13.68;;
13611;SDS011;6877;51.436;6.774;2024-03-25T04:40:04;44.35;;;13.65;;
13611;SDS011;6877;51.436;6.774;2024-03-25T04:42:30;33.70;;;11.50;;
13611;SDS011;6877;51.436;6.774;2024-03-25T04:44:56;51.08;;;13.38;;
13611;SDS011;6877;51.436;6.774;2024-03-25T04:47:22;39.08;;;11.93;;
13611;SDS011;6877;51.436;6.774;2024-03-25T04:49:48;33.72;;;10.25;;
13611;SDS011;6877;51.436;6.774;2024-03-25T04:52:14;33.65;;;11.77;;
13611;SDS011;6877;51.436;6.774;2024-03-25T04:54:44;29.00;;;8.63;;
13611;SDS011;6877;51.436;6.774;2024-03-25T04:57:10;30.40;;;8.63;;
13611;SDS011;6877;51.436;6.774;2024-03-25T04:59:36;25.20;;;8.52;;
13611;SDS011;6877;51.436;6.774;2024-03-25T05:02:02;20.60;;;6.32;;
13611;SDS011;6877;51.436;6.774;2024-03-25T05:04:28;30.80;;;9.13;;
13611;SDS011;6877;51.436;6.774;2024-03-25T05:06:54;26.77;;;7.75;;
13611;SDS011;6877;51.436;6.774;2024-03-25T05:09:20;19.70;;;8.63;;
13611;SDS011;6877;51.436;6.774;2024-03-25T05:11:45;25.42;;;8.93;;
13611;SDS011;6877;51.436;6.774;2024-03-25T05:14:16;26.63;;;8.35;;
13611;SDS011;6877;51.436;6.774;2024-03-25T05:16:44;33.40;;;8.98;;
13611;SDS011;6877;51.436;6.774;2024-03-25T05:19:10;36.53;;;10.40;;
13611;SDS011;6877;51.436;6.774;2024-03-25T05:21:36;34.40;;;10.50;;
13611;SDS011;6877;51.436;6.774;2024-03-25T05:24:02;22.48;;;8.50;;
13611;SDS011;6877;51.436;6.774;2024-03-25T05:26:28;42.70;;;9.98;;
13611;SDS011;6877;51.436;6.774;2024-03-25T05:28:55;29.98;;;10.43;;
13611;SDS011;6877;51.436;6.774;2024-03-25T05:31:22;33.28;;;9.43;;
13611;SDS011;6877;51.436;6.774;2024-03-25T05:33:48;35.58;;;10.50;;
13611;SDS011;6877;51.436;6.774;2024-03-25T05:36:15;33.40;;;11.27;;
13611;SDS011;6877;51.436;6.774;2024-03-25T05:38:40;31.42;;;10.30;;
13611;SDS011;6877;51.436;6.774;2024-03-25T05:41:09;32.13;;;9.60;;
13611;SDS011;6877;51.436;6.774;2024-03-25T05:43:36;32.00;;;10.43;;
13611;SDS011;6877;51.436;6.774;2024-03-25T05:46:02;31.88;;;9.68;;
13611;SDS011;6877;51.436;6.774;2024-03-25T05:48:30;38.15;;;10.40;;
13611;SDS011;6877;51.436;6.774;2024-03-25T05:51:00;35.20;;;10.43;;
13611;SDS011;6877;51.436;6.774;2024-03-25T05:53:40;31.92;;;9.23;;
13611;SDS011;6877;51.436;6.774;2024-03-25T05:56:06;27.90;;;10.00;;
13611;SDS011;6877;51.436;6.774;2024-03-25T05:58:40;31.58;;;9.35;;
13611;SDS011;6877;51.436;6.774;2024-03-25T06:01:06;33.67;;;9.02;;
13611;SDS011;6877;51.436;6.774;2024-03-25T06:03:33;23.25;;;7.63;;
13611;SDS011;6877;51.436;6.774;2024-03-25T06:05:59;19.95;;;8.18;;
13611;SDS011;6877;51.436;6.774;2024-03-25T06:08:25;25.88;;;8.32;;
13611;SDS011;6877;51.436;6.774;2024-03-25T06:10:54;35.47;;;9.77;;
13611;SDS011;6877;51.436;6.774;2024-03-25T06:13:25;27.92;;;9.02;;
13611;SDS011;6877;51.436;6.774;2024-03-25T06:15:51;35.90;;;8.95;;
13611;SDS011;6877;51.436;6.774;2024-03-25T06:18:17;30.02;;;8.70;;
13611;SDS011;6877;51.436;6.774;2024-03-25T06:20:42;20.17;;;8.15;;
13611;SDS011;6877;51.436;6.774;2024-03-25T06:23:08;29.67;;;8.32;;
13611;SDS011;6877;51.436;6.774;2024-03-25T06:25:56;21.00;;;7.22;;
13611;SDS011;6877;51.436;6.774;2024-03-25T06:28:24;20.27;;;7.93;;
13611;SDS011;6877;51.436;6.774;2024-03-25T06:30:54;28.02;;;8.88;;
13611;SDS011;6877;51.436;6.774;2024-03-25T06:33:38;37.63;;;9.88;;
13611;SDS011;6877;51.436;6.774;2024-03-25T06:36:23;21.83;;;9.10;;
13611;SDS011;6877;51.436;6.774;2024-03-25T06:38:49;20.58;;;8.45;;
13611;SDS011;6877;51.436;6.774;2024-03-25T06:41:15;21.70;;;9.65;;
13611;SDS011;6877;51.436;6.774;2024-03-25T06:43:42;29.77;;;8.80;;
13611;SDS011;6877;51.436;6.774;2024-03-25T06:46:08;24.77;;;8.63;;
13611;SDS011;6877;51.436;6.774;2024-03-25T06:48:34;26.15;;;9.60;;
13611;SDS011;6877;51.436;6.774;2024-03-25T06:51:00;28.33;;;9.57;;
13611;SDS011;6877;51.436;6.774;2024-03-25T06:53:28;26.85;;;9.48;;
13611;SDS011;6877;51.436;6.774;2024-03-25T06:55:56;25.13;;;9.20;;
13611;SDS011;6877;51.436;6.774;2024-03-25T06:58:26;32.83;;;9.45;;
13611;SDS011;6877;51.436;6.774;2024-03-25T07:00:53;22.95;;;9.27;;
13611;SDS011;6877;51.436;6.774;2024-03-25T07:03:20;18.55;;;7.80;;
13611;SDS011;6877;51.436;6.774;2024-03-25T07:05:48;20.35;;;8.63;;
13611;SDS011;6877;51.436;6.774;2024-03-25T07:08:14;19.88;;;8.98;;
13611;SDS011;6877;51.436;6.774;2024-03-25T07:10:41;27.67;;;7.78;;
13611;SDS011;6877;51.436;6.774;2024-03-25T07:13:07;22.90;;;7.53;;
13611;SDS011;6877;51.436;6.774;2024-03-25T07:15:33;21.50;;;8.23;;
13611;SDS011;6877;51.436;6.774;2024-03-25T07:17:59;24.00;;;8.38;;
13611;SDS011;6877;51.436;6.774;2024-03-25T07:20:25;25.88;;;7.78;;
13611;SDS011;6877;51.436;6.774;2024-03-25T07:22:52;25.45;;;8.95;;
13611;SDS011;6877;51.436;6.774;2024-03-25T07:25:21;20.25;;;8.30;;
13611;SDS011;6877;51.436;6.774;2024-03-25T07:27:50;27.08;;;11.75;;
13611;SDS011;6877;51.436;6.774;2024-03-25T07:30:16;24.67;;;8.35;;
13611;SDS011;6877;51.436;6.774;2024-03-25T07:32:42;21.17;;;7.55;;
13611;SDS011;6877;51.436;6.774;2024-03-25T07:35:10;11.65;;;6.50;;
13611;SDS011;6877;51.436;6.774;2024-03-25T07:37:37;16.25;;;5.82;;
13611;SDS011;6877;51.436;6.774;2024-03-25T07:40:03;14.57;;;7.68;;
13611;SDS011;6877;51.436;6.774;2024-03-25T07:42:29;11.75;;;6.40;;
13611;SDS011;6877;51.436;6.774;2024-03-25T07:44:55;15.65;;;6.22;;
13611;SDS011;6877;51.436;6.774;2024-03-25T07:47:21;17.98;;;5.50;;
13611;SDS011;6877;51.436;6.774;2024-03-25T07:49:47;15.13;;;6.13;;
13611;SDS011;6877;51.436;6.774;2024-03-25T07:52:13;9.88;;;5.55;;
13611;SDS011;6877;51.436;6.774;2024-03-25T07:54:39;14.98;;;6.13;;
13611;SDS011;6877;51.436;6.774;2024-03-25T07:57:06;20.92;;;5.78;;
13611;SDS011;6877;51.436;6.774;2024-03-25T07:59:31;16.67;;;6.22;;
13611;SDS011;6877;51.436;6.774;2024-03-25T08:01:57;17.38;;;5.72;;
13611;SDS011;6877;51.436;6.774;2024-03-25T08:04:23;16.23;;;6.65;;
13611;SDS011;6877;51.436;6.774;2024-03-25T08:06:49;14.60;;;5.38;;
13611;SDS011;6877;51.436;6.774;2024-03-25T08:09:15;18.52;;;6.72;;
13611;SDS011;6877;51.436;6.774;2024-03-25T08:11:42;16.30;;;5.00;;
13611;SDS011;6877;51.436;6.774;2024-03-25T08:14:11;16.77;;;5.28;;
13611;SDS011;6877;51.436;6.774;2024-03-25T08:16:38;16.05;;;5.93;;
13611;SDS011;6877;51.436;6.774;2024-03-25T08:19:04;13.40;;;4.75;;
13611;SDS011;6877;51.436;6.774;2024-03-25T08:21:30;20.15;;;6.88;;
13611;SDS011;6877;51.436;6.774;2024-03-25T08:23:55;13.55;;;4.88;;
13611;SDS011;6877;51.436;6.774;2024-03-25T08:26:21;8.88;;;3.65;;
13611;SDS011;6877;51.436;6.774;2024-03-25T08:28:47;12.73;;;3.28;;
13611;SDS011;6877;51.436;6.774;2024-03-25T08:31:14;12.00;;;3.83;;
13611;SDS011;6877;51.436;6.774;2024-03-25T08:33:41;9.35;;;4.28;;
13611;SDS011;6877;51.436;6.774;2024-03-25T08:36:07;9.23;;;3.15;;
13611;SDS011;6877;51.436;6.774;2024-03-25T08:38:33;9.93;;;3.83;;
13611;SDS011;6877;51.436;6.774;2024-03-25T08:40:59;10.52;;;3.17;;
13611;SDS011;6877;51.436;6.774;2024-03-25T08:43:25;10.60;;;3.05;;
13611;SDS011;6877;51.436;6.774;2024-03-25T08:45:51;7.60;;;3.33;;
13611;SDS011;6877;51.436;6.774;2024-03-25T08:48:17;9.05;;;3.17;;
13611;SDS011;6877;51.436;6.774;2024-03-25T08:50:43;12.77;;;3.75;;
13611;SDS011;6877;51.436;6.774;2024-03-25T08:53:12;9.13;;;2.88;;
13611;SDS011;6877;51.436;6.774;2024-03-25T08:55:38;7.07;;;2.40;;
13611;SDS011;6877;51.436;6.774;2024-03-25T08:58:09;8.65;;;3.10;;
13611;SDS011;6877;51.436;6.774;2024-03-25T09:00:35;9.23;;;3.13;;
13611;SDS011;6877;51.436;6.774;2024-03-25T09:03:00;12.07;;;3.47;;
13611;SDS011;6877;51.436;6.774;2024-03-25T09:05:26;10.18;;;3.05;;
13611;SDS011;6877;51.436;6.774;2024-03-25T09:07:53;9.18;;;3.33;;
13611;SDS011;6877;51.436;6.774;2024-03-25T09:10:19;11.32;;;3.22;;
13611;SDS011;6877;51.436;6.774;2024-03-25T09:13:06;11.80;;;3.75;;
13611;SDS011;6877;51.436;6.774;2024-03-25T09:15:47;12.05;;;3.95;;
13611;SDS011;6877;51.436;6.774;2024-03-25T09:18:25;11.30;;;4.50;;
13611;SDS011;6877;51.436;6.774;2024-03-25T09:20:52;15.95;;;4.78;;
13611;SDS011;6877;51.436;6.774;2024-03-25T09:23:18;16.27;;;6.93;;
13611;SDS011;6877;51.436;6.774;2024-03-25T09:25:51;12.25;;;6.22;;
13611;SDS011;6877;51.436;6.774;2024-03-25T09:28:19;13.48;;;5.32;;
13611;SDS011;6877;51.436;6.774;2024-03-25T09:30:47;15.10;;;5.68;;
13611;SDS011;6877;51.436;6.774;2024-03-25T09:33:14;17.00;;;6.22;;
13611;SDS011;6877;51.436;6.774;2024-03-25T09:35:44;15.55;;;6.18;;
13611;SDS011;6877;51.436;6.774;2024-03-25T09:38:10;13.48;;;5.40;;
13611;SDS011;6877;51.436;6.774;2024-03-25T09:40:40;16.05;;;6.80;;
13611;SDS011;6877;51.436;6.774;2024-03-25T09:43:25;17.65;;;5.97;;
13611;SDS011;6877;51.436;6.774;2024-03-25T09:45:59;15.38;;;4.53;;
13611;SDS011;6877;51.436;6.774;2024-03-25T09:48:26;17.60;;;4.57;;
13611;SDS011;6877;51.436;6.774;2024-03-25T09:50:52;15.63;;;3.40;;
13611;SDS011;6877;51.436;6.774;2024-03-25T09:53:19;8.45;;;2.95;;
13611;SDS011;6877;51.436;6.774;2024-03-25T09:55:48;7.70;;;2.85;;
13611;SDS011;6877;51.436;6.774;2024-03-25T09:58:14;7.60;;;2.85;;
13611;SDS011;6877;51.436;6.774;2024-03-25T10:00:42;4.97;;;2.75;;
13611;SDS011;6877;51.436;6.774;2024-03-25T10:03:08;10.25;;;3.72;;
13611;SDS011;6877;51.436;6.774;2024-03-25T10:05:34;8.90;;;2.90;;
13611;SDS011;6877;51.436;6.774;2024-03-25T10:08:00;13.90;;;2.95;;
13611;SDS011;6877;51.436;6.774;2024-03-25T10:10:26;8.77;;;2.65;;
13611;SDS011;6877;51.436;6.774;2024-03-25T10:12:54;12.95;;;3.17;;
13611;SDS011;6877;51.436;6.774;2024-03-25T10:15:20;10.32;;;3.25;;
13611;SDS011;6877;51.436;6.774;2024-03-25T10:17:48;7.70;;;3.10;;
13611;SDS011;6877;51.436;6.774;2024-03-25T10:20:15;7.60;;;3.58;;
13611;SDS011;6877;51.436;6.774;2024-03-25T10:22:45;10.77;;;3.60;;
13611;SDS011;6877;51.436;6.774;2024-03-25T10:25:21;13.93;;;4.07;;
13611;SDS011;6877;51.436;6.774;2024-03-25T10:27:58;13.00;;;3.72;;
13611;SDS011;6877;51.436;6.774;2024-03-25T10:30:25;10.05;;;4.45;;
13611;SDS011;6877;51.436;6.774;2024-03-25T10:32:59;8.35;;;3.70;;
13611;SDS011;6877;51.436;6.774;2024-03-25T10:35:33;11.25;;;3.40;;
13611;SDS011;6877;51.436;6.774;2024-03-25T10:38:00;10.60;;;3.13;;
13611;SDS011;6877;51.436;6.774;2024-03-25T10:40:32;9.63;;;3.20;;
13611;SDS011;6877;51.436;6.774;2024-03-25T10:45:24;8.32;;;3.28;;
13611;SDS011;6877;51.436;6.774;2024-03-25T10:47:54;11.82;;;3.30;;
13611;SDS011;6877;51.436;6.774;2024-03-25T10:50:59;9.27;;;3.20;;
13611;SDS011;6877;51.436;6.774;2024-03-25T10:53:34;8.65;;;3.08;;
13611;SDS011;6877;51.436;6.774;2024-03-25T10:56:54;6.65;;;2.78;;
13611;SDS011;6877;51.436;6.774;2024-03-25T10:59:33;7.10;;;3.20;;
13611;SDS011;6877;51.436;6.774;2024-03-25T11:02:10;7.75;;;3.80;;
13611;SDS011;6877;51.436;6.774;2024-03-25T11:04:38;9.88;;;4.15;;
13611;SDS011;6877;51.436;6.774;2024-03-25T11:07:08;9.13;;;5.43;;
13611;SDS011;6877;51.436;6.774;2024-03-25T11:09:36;10.75;;;4.55;;
13611;SDS011;6877;51.436;6.774;2024-03-25T11:12:02;8.27;;;4.20;;
13611;SDS011;6877;51.436;6.774;2024-03-25T11:14:31;8.80;;;5.03;;
13611;SDS011;6877;51.436;6.774;2024-03-25T11:16:58;11.63;;;4.82;;
13611;SDS011;6877;51.436;6.774;2024-03-25T11:19:37;5.32;;;4.07;;
13611;SDS011;6877;51.436;6.774;2024-03-25T11:22:10;11.55;;;4.20;;
13611;SDS011;6877;51.436;6.774;2024-03-25T11:27:08;11.43;;;3.95;;
13611;SDS011;6877;51.436;6.774;2024-03-25T11:29:34;11.77;;;4.40;;
13611;SDS011;6877;51.436;6.774;2024-03-25T11:32:03;13.98;;;4.80;;
13611;SDS011;6877;51.436;6.774;2024-03-25T11:34:30;8.88;;;3.72;;
13611;SDS011;6877;51.436;6.774;2024-03-25T11:36:55;8.75;;;4.15;;
13611;SDS011;6877;51.436;6.774;2024-03-25T11:39:23;11.85;;;4.72;;
13611;SDS011;6877;51.436;6.774;2024-03-25T11:41:48;8.50;;;4.57;;
13611;SDS011;6877;51.436;6.774;2024-03-25T11:44:14;12.55;;;4.65;;
13611;SDS011;6877;51.436;6.774;2024-03-25T11:46:42;12.75;;;5.40;;
13611;SDS011;6877;51.436;6.774;2024-03-25T11:49:12;12.55;;;5.07;;
13611;SDS011;6877;51.436;6.774;2024-03-25T11:51:39;9.52;;;5.07;;
13611;SDS011;6877;51.436;6.774;2024-03-25T11:54:06;9.27;;;4.50;;
13611;SDS011;6877;51.436;6.774;2024-03-25T11:56:32;18.85;;;5.32;;
13611;SDS011;6877;51.436;6.774;2024-03-25T11:58:59;10.90;;;4.97;;
13611;SDS011;6877;51.436;6.774;2024-03-25T12:01:25;11.43;;;4.97;;
13611;SDS011;6877;51.436;6.774;2024-03-25T12:03:51;14.65;;;4.30;;
13611;SDS011;6877;51.436;6.774;2024-03-25T12:06:17;7.80;;;4.35;;
13611;SDS011;6877;51.436;6.774;2024-03-25T12:08:42;12.88;;;4.07;;
13611;SDS011;6877;51.436;6.774;2024-03-25T12:11:31;13.85;;;4.03;;
13611;SDS011;6877;51.436;6.774;2024-03-25T12:13:57;6.72;;;3.85;;
13611;SDS011;6877;51.436;6.774;2024-03-25T12:16:24;6.25;;;3.17;;
13611;SDS011;6877;51.436;6.774;2024-03-25T12:18:50;11.75;;;3.67;;
13611;SDS011;6877;51.436;6.774;2024-03-25T12:21:17;9.00;;;3.70;;
13611;SDS011;6877;51.436;6.774;2024-03-25T12:23:43;6.18;;;3.42;;
13611;SDS011;6877;51.436;6.774;2024-03-25T12:26:09;7.10;;;3.15;;
13611;SDS011;6877;51.436;6.774;2024-03-25T12:28:35;4.78;;;2.35;;
13611;SDS011;6877;51.436;6.774;2024-03-25T12:31:03;3.85;;;2.13;;
13611;SDS011;6877;51.436;6.774;2024-03-25T12:33:42;5.80;;;2.40;;
13611;SDS011;6877;51.436;6.774;2024-03-25T12:36:11;7.13;;;2.58;;
13611;SDS011;6877;51.436;6.774;2024-03-25T12:38:38;9.02;;;3.90;;
13611;SDS011;6877;51.436;6.774;2024-03-25T12:41:07;5.82;;;3.28;;
13611;SDS011;6877;51.436;6.774;2024-03-25T12:43:35;7.90;;;2.90;;
13611;SDS011;6877;51.436;6.774;2024-03-25T12:46:02;7.53;;;3.15;;
13611;SDS011;6877;51.436;6.774;2024-03-25T12:48:31;9.00;;;3.13;;
13611;SDS011;6877;51.436;6.774;2024-03-25T12:50:56;4.93;;;2.50;;
13611;SDS011;6877;51.436;6.774;2024-03-25T12:53:22;6.55;;;3.92;;
13611;SDS011;6877;51.436;6.774;2024-03-25T12:55:48;10.80;;;4.65;;
13611;SDS011;6877;51.436;6.774;2024-03-25T12:58:14;9.77;;;3.28;;
13611;SDS011;6877;51.436;6.774;2024-03-25T13:00:40;8.27;;;3.28;;
13611;SDS011;6877;51.436;6.774;2024-03-25T13:03:06;11.95;;;3.42;;
13611;SDS011;6877;51.436;6.774;2024-03-25T13:05:33;9.40;;;3.05;;
13611;SDS011;6877;51.436;6.774;2024-03-25T13:07:59;6.50;;;3.00;;
13611;SDS011;6877;51.436;6.774;2024-03-25T13:10:25;12.13;;;4.22;;
13611;SDS011;6877;51.436;6.774;2024-03-25T13:12:51;7.85;;;3.20;;
13611;SDS011;6877;51.436;6.774;2024-03-25T13:15:17;12.45;;;4.03;;
13611;SDS011;6877;51.436;6.774;2024-03-25T13:17:43;9.25;;;3.97;;
13611;SDS011;6877;51.436;6.774;2024-03-25T13:20:08;8.38;;;3.15;;
13611;SDS011;6877;51.436;6.774;2024-03-25T13:22:34;6.05;;;3.03;;
13611;SDS011;6877;51.436;6.774;2024-03-25T13:25:00;8.53;;;3.37;;
13611;SDS011;6877;51.436;6.774;2024-03-25T13:27:26;7.15;;;3.17;;
13611;SDS011;6877;51.436;6.774;2024-03-25T13:29:51;8.85;;;3.80;;
13611;SDS011;6877;51.436;6.774;2024-03-25T13:32:18;6.78;;;2.72;;
13611;SDS011;6877;51.436;6.774;2024-03-25T13:34:44;7.22;;;3.88;;
13611;SDS011;6877;51.436;6.774;2024-03-25T13:37:10;9.88;;;3.20;;
13611;SDS011;6877;51.436;6.774;2024-03-25T13:39:36;10.85;;;2.60;;
13611;SDS011;6877;51.436;6.774;2024-03-25T13:42:02;8.93;;;3.22;;
13611;SDS011;6877;51.436;6.774;2024-03-25T13:44:28;8.63;;;2.97;;
13611;SDS011;6877;51.436;6.774;2024-03-25T13:46:54;8.00;;;3.17;;
13611;SDS011;6877;51.436;6.774;2024-03-25T13:49:20;7.47;;;3.95;;
13611;SDS011;6877;51.436;6.774;2024-03-25T13:51:48;5.10;;;3.13;;
13611;SDS011;6877;51.436;6.774;2024-03-25T13:54:13;13.05;;;3.33;;
13611;SDS011;6877;51.436;6.774;2024-03-25T13:56:39;8.48;;;4.10;;
13611;SDS011;6877;51.436;6.774;2024-03-25T13:59:07;4.38;;;2.92;;
13611;SDS011;6877;51.436;6.774;2024-03-25T14:01:32;4.57;;;2.72;;
13611;SDS011;6877;51.436;6.774;2024-03-25T14:03:58;7.88;;;3.22;;
13611;SDS011;6877;51.436;6.774;2024-03-25T14:06:24;6.53;;;3.28;;
13611;SDS011;6877;51.436;6.774;2024-03-25T14:08:50;8.13;;;2.70;;
13611;SDS011;6877;51.436;6.774;2024-03-25T14:11:15;4.68;;;2.45;;
13611;SDS011;6877;51.436;6.774;2024-03-25T14:13:41;6.30;;;3.20;;
13611;SDS011;6877;51.436;6.774;2024-03-25T14:16:06;5.90;;;3.08;;
13611;SDS011;6877;51.436;6.774;2024-03-25T14:18:32;8.23;;;3.25;;
13611;SDS011;6877;51.436;6.774;2024-03-25T14:21:04;7.38;;;4.15;;
13611;SDS011;6877;51.436;6.774;2024-03-25T14:23:29;5.38;;;2.83;;
13611;SDS011;6877;51.436;6.774;2024-03-25T14:25:55;5.97;;;2.45;;
13611;SDS011;6877;51.436;6.774;2024-03-25T14:28:21;5.75;;;2.65;;
13611;SDS011;6877;51.436;6.774;2024-03-25T14:30:46;5.78;;;2.97;;
13611;SDS011;6877;51.436;6.774;2024-03-25T14:33:12;3.63;;;2.28;;
13611;SDS011;6877;51.436;6.774;2024-03-25T14:35:38;4.93;;;2.53;;
13611;SDS011;6877;51.436;6.774;2024-03-25T14:38:04;5.30;;;3.40;;
13611;SDS011;6877;51.436;6.774;2024-03-25T14:40:29;8.00;;;2.55;;
13611;SDS011;6877;51.436;6.774;2024-03-25T14:42:55;4.45;;;2.03;;
13611;SDS011;6877;51.436;6.774;2024-03-25T14:45:21;7.90;;;2.58;;
13611;SDS011;6877;51.436;6.774;2024-03-25T14:47:46;6.55;;;2.45;;
13611;SDS011;6877;51.436;6.774;2024-03-25T14:50:13;5.63;;;2.30;;
13611;SDS011;6877;51.436;6.774;2024-03-25T14:52:39;2.67;;;2.35;;
13611;SDS011;6877;51.436;6.774;2024-03-25T14:55:04;10.20;;;3.42;;
13611;SDS011;6877;51.436;6.774;2024-03-25T14:57:35;6.65;;;2.33;;